Time;durP1;ratioP1;P1;durP2;ratioP2;P2;SDS_P1;SDS_P2;PMS_P1;PMS_P2;Temp;Humidity;BMP_temperature;BMP_pressure;BME280_temperature;BME280_humidity;BME280_pressure;Samples;Min_cycle;Max_cycle;Signal;HPM_P1;HPM_P2
2021/07/27 00:01:41;;;;;;;19.52;14.23;;;;;;;19.81;71.89;96864.54;1810196;77;25716;-89
2021/07/27 00:04:08;;;;;;;21.95;15.32;;;;;;;19.75;72.04;96858.30;1803781;77;26393;-88
2021/07/27 00:06:35;;;;;;;22.17;15.63;;;;;;;19.76;72.17;96865.41;1771536;79;25793;-87
2021/07/27 00:09:01;;;;;;;21.70;13.95;;;;;;;19.76;72.24;96866.78;1764859;78;25316;-90
2021/07/27 00:11:28;;;;;;;24.60;14.85;;;;;;;19.70;72.20;96865.98;1743657;80;27500;-87
2021/07/27 00:13:55;;;;;;;20.32;15.00;;;;;;;19.70;72.38;96868.72;1717492;82;26021;-85
2021/07/27 00:16:21;;;;;;;19.07;14.47;;;;;;;19.70;72.44;96864.61;1786491;79;25827;-89
2021/07/27 00:18:48;;;;;;;23.20;17.20;;;;;;;19.69;72.49;96861.59;1786000;77;25600;-86
2021/07/27 00:21:14;;;;;;;24.07;16.15;;;;;;;19.71;72.48;96864.88;1796439;77;25305;-89
2021/07/27 00:23:41;;;;;;;17.02;13.78;;;;;;;19.70;72.56;96850.92;1791821;77;28185;-86
2021/07/27 00:26:14;;;;;;;20.20;14.50;;;;;;;19.66;72.53;96852.60;1803244;77;25768;-85
2021/07/27 00:28:42;;;;;;;18.40;13.83;;;;;;;19.55;72.57;96851.02;1791158;77;25787;-87
2021/07/27 00:31:17;;;;;;;17.25;14.75;;;;;;;19.51;72.80;96849.94;1794212;79;25824;-94
2021/07/27 00:33:46;;;;;;;24.98;16.82;;;;;;;19.44;72.86;96848.83;1745868;80;25756;-87
2021/07/27 00:36:12;;;;;;;22.80;16.42;;;;;;;19.37;72.95;96858.45;1792016;78;27477;-87
2021/07/27 00:38:42;;;;;;;28.85;18.25;;;;;;;19.37;73.14;96857.91;1797481;77;25722;-87
2021/07/27 00:41:09;;;;;;;24.15;17.87;;;;;;;19.42;73.25;96848.87;1795305;77;25738;-88
2021/07/27 00:43:35;;;;;;;31.93;17.57;;;;;;;19.46;73.28;96845.81;1809293;77;26021;-90
2021/07/27 00:46:02;;;;;;;27.17;17.12;;;;;;;19.49;73.29;96845.84;1795977;78;25780;-87
2021/07/27 00:48:29;;;;;;;31.05;17.45;;;;;;;19.50;73.29;96846.93;1803748;77;27378;-87
2021/07/27 00:50:55;;;;;;;27.90;17.40;;;;;;;19.52;73.25;96846.66;1786256;77;25800;-87
2021/07/27 00:53:23;;;;;;;23.30;16.67;;;;;;;19.53;73.30;96845.01;1800793;77;25760;-88
2021/07/27 00:55:51;;;;;;;30.08;17.15;;;;;;;19.54;73.35;96846.65;1800179;77;25716;-89
2021/07/27 00:58:18;;;;;;;22.77;15.60;;;;;;;19.54;73.37;96848.02;1785849;77;25884;-87
2021/07/27 01:00:44;;;;;;;24.57;15.10;;;;;;;19.55;73.46;96846.10;1775985;77;27407;-88
2021/07/27 01:03:11;;;;;;;19.62;14.50;;;;;;;19.52;73.49;96843.92;1775175;79;25782;-87
2021/07/27 01:05:38;;;;;;;19.65;13.65;;;;;;;19.50;73.49;96851.04;1781273;77;25738;-88
2021/07/27 01:08:05;;;;;;;21.23;14.05;;;;;;;19.47;73.49;96854.30;1786610;78;25762;-87
2021/07/27 01:10:32;;;;;;;18.85;14.05;;;;;;;19.44;73.49;96860.36;1778401;79;25755;-87
2021/07/27 01:12:58;;;;;;;19.60;14.53;;;;;;;19.43;73.51;96868.30;1798420;77;27581;-89
2021/07/27 01:15:25;;;;;;;21.57;15.05;;;;;;;19.36;73.56;96866.39;1786162;77;25720;-88
2021/07/27 01:17:59;;;;;;;17.48;14.13;;;;;;;19.22;73.61;96857.97;1790506;78;26504;-88
2021/07/27 01:20:32;;;;;;;19.75;14.35;;;;;;;19.11;73.73;96855.55;1798228;77;25756;-86
2021/07/27 01:39:56;;;;;;;20.70;15.28;;;;;;;18.97;74.25;96860.23;1773447;79;27477;-88
2021/07/27 01:44:40;;;;;;;25.43;16.07;;;;;;;18.94;74.36;96866.28;1784430;77;25684;-87
2021/07/27 01:47:04;;;;;;;17.65;14.35;;;;;;;18.83;74.26;96867.41;1800857;77;25709;-94
2021/07/27 01:49:31;;;;;;;18.95;14.47;;;;;;;18.79;74.45;96883.27;1790811;77;25746;-89
2021/07/27 01:51:58;;;;;;;21.35;14.83;;;;;;;18.74;74.48;96877.79;1806086;77;27396;-91
2021/07/27 01:54:40;;;;;;;21.97;14.50;;;;;;;18.76;74.61;96885.17;1809889;77;25934;-91
2021/07/27 01:56:56;;;;;;;17.17;13.85;;;;;;;18.71;74.54;96887.39;1807338;77;25813;-87
2021/07/27 01:59:23;;;;;;;18.07;14.00;;;;;;;18.65;74.64;96899.41;1805727;78;25850;-92
2021/07/27 02:01:50;;;;;;;18.25;14.20;;;;;;;18.63;74.78;96907.06;1805210;78;25756;-87
2021/07/27 02:04:16;;;;;;;19.07;14.65;;;;;;;18.67;74.92;96908.16;1798512;77;27401;-87
2021/07/27 02:06:43;;;;;;;17.27;14.50;;;;;;;18.64;74.89;96922.37;1796846;77;25817;-88
2021/07/27 02:09:09;;;;;;;20.37;14.93;;;;;;;18.65;74.94;96926.74;1801540;77;25713;-86
2021/07/27 02:11:42;;;;;;;19.02;15.93;;;;;;;18.59;75.05;96933.32;1746927;80;26552;-87
2021/07/27 02:14:11;;;;;;;20.27;15.50;;;;;;;18.53;75.19;96929.72;1778539;79;25684;-86
2021/07/27 02:16:36;;;;;;;19.20;15.05;;;;;;;18.54;75.42;96933.28;1772559;77;28461;-92
2021/07/27 02:19:04;;;;;;;22.15;15.18;;;;;;;18.52;75.44;96944.48;1765628;79;25797;-87
2021/07/27 02:21:31;;;;;;;20.17;15.18;;;;;;;18.54;75.59;96941.48;1768971;79;25762;-87
2021/07/27 02:24:00;;;;;;;22.40;16.55;;;;;;;18.60;75.61;96951.33;1754010;80;25801;-87
2021/07/27 02:26:27;;;;;;;20.65;15.70;;;;;;;18.61;75.62;96950.24;1768488;80;25887;-87
2021/07/27 02:28:54;;;;;;;23.98;16.85;;;;;;;18.63;75.75;96942.59;1762594;78;27416;-88
2021/07/27 02:31:37;;;;;;;21.50;18.07;;;;;;;18.63;75.74;96947.52;1761702;79;25711;-88
2021/07/27 02:34:03;;;;;;;22.37;15.75;;;;;;;18.65;75.83;96945.33;1755672;79;26565;-89
2021/07/27 02:36:29;;;;;;;22.35;16.73;;;;;;;18.70;75.83;96951.36;1783044;79;25841;-87
2021/07/27 02:39:04;;;;;;;23.30;16.32;;;;;;;18.73;75.89;96948.05;1784517;77;25716;-85
2021/07/27 02:41:31;;;;;;;18.62;15.68;;;;;;;18.67;75.76;96948.62;1780860;78;27574;-88
2021/07/27 02:44:00;;;;;;;22.80;16.10;;;;;;;18.68;75.89;96946.16;1796824;78;25911;-87
2021/07/27 02:46:27;;;;;;;19.00;16.37;;;;;;;18.70;75.93;96952.73;1773287;79;26412;-87
2021/07/27 02:48:59;;;;;;;21.40;16.07;;;;;;;18.70;75.93;96955.45;1728165;80;26550;-88
2021/07/27 02:51:25;;;;;;;22.30;16.48;;;;;;;18.72;75.94;96956.55;1770498;78;32379;-89
2021/07/27 02:53:52;;;;;;;25.15;16.20;;;;;;;18.67;75.96;96950.53;1780045;78;27872;-88
2021/07/27 02:56:20;;;;;;;23.50;15.75;;;;;;;18.66;75.98;96961.19;1804711;77;25936;-87
2021/07/27 02:58:46;;;;;;;20.62;15.63;;;;;;;18.67;75.96;96960.09;1786564;77;25839;-89
2021/07/27 03:01:13;;;;;;;22.65;14.83;;;;;;;18.67;75.93;96964.20;1802540;77;25787;-87
2021/07/27 03:03:40;;;;;;;23.77;14.63;;;;;;;18.66;75.83;96959.82;1810422;77;25727;-88
2021/07/27 03:06:08;;;;;;;20.50;15.28;;;;;;;18.62;75.81;96964.19;1801145;77;27485;-87
2021/07/27 03:11:20;;;;;;;20.57;14.63;;;;;;;18.59;75.84;96965.58;1800288;77;25817;-88
2021/07/27 03:13:47;;;;;;;20.45;16.07;;;;;;;18.58;75.86;96965.30;1759720;78;25729;-91
2021/07/27 03:16:18;;;;;;;21.68;16.17;;;;;;;18.57;75.81;96968.27;1718064;80;25736;-87
2021/07/27 03:18:48;;;;;;;21.87;15.72;;;;;;;18.49;75.79;96955.13;1754355;79;27455;-89
2021/07/27 03:21:19;;;;;;;20.10;15.45;;;;;;;18.40;75.87;96960.86;1780596;79;25841;-89
2021/07/27 03:23:47;;;;;;;19.27;14.25;;;;;;;18.40;76.02;96959.50;1772608;78;25744;-89
2021/07/27 03:26:13;;;;;;;20.77;14.80;;;;;;;18.40;76.06;96968.52;1721111;80;25839;-89
2021/07/27 03:28:40;;;;;;;18.42;14.65;;;;;;;18.36;76.04;96975.06;1765753;79;25780;-89
2021/07/27 03:31:07;;;;;;;18.57;14.90;;;;;;;18.37;76.19;96974.52;1773889;79;27379;-86
2021/07/27 03:33:34;;;;;;;22.30;15.15;;;;;;;18.32;76.13;96972.62;1771244;79;25909;-88
2021/07/27 03:36:00;;;;;;;19.05;14.60;;;;;;;18.35;76.31;96985.72;1780017;79;25735;-88
2021/07/27 03:38:27;;;;;;;23.57;15.75;;;;;;;18.39;76.38;96975.08;1731352;80;25962;-88
2021/07/27 03:41:06;;;;;;;22.82;16.05;;;;;;;18.44;76.43;96971.53;1730891;80;25783;-88
2021/07/27 03:43:33;;;;;;;21.50;15.58;;;;;;;18.46;76.44;96976.19;1735936;81;27413;-89
2021/07/27 03:46:01;;;;;;;19.15;16.02;;;;;;;18.49;76.45;96975.63;1757506;79;25925;-87
2021/07/27 03:48:28;;;;;;;22.90;16.90;;;;;;;18.52;76.46;96981.38;1793441;77;25917;-87
2021/07/27 03:50:54;;;;;;;21.25;15.38;;;;;;;18.55;76.47;96985.48;1804020;77;26158;-90
2021/07/27 03:53:23;;;;;;;22.58;16.17;;;;;;;18.58;76.49;96982.25;1814250;77;25714;-86
2021/07/27 03:55:52;;;;;;;23.52;15.72;;;;;;;18.60;76.55;96975.94;1800251;78;27397;-88
2021/07/27 03:58:18;;;;;;;19.98;16.50;;;;;;;18.54;76.46;96978.38;1792195;78;25743;-89
2021/07/27 04:00:45;;;;;;;21.93;16.55;;;;;;;18.52;76.58;96981.92;1810559;78;25826;-91
2021/07/27 04:03:13;;;;;;;23.27;16.62;;;;;;;18.56;76.71;96978.92;1809241;77;25727;-89
2021/07/27 04:05:45;;;;;;;20.00;15.68;;;;;;;18.53;76.64;96984.39;1755571;79;25730;-87
2021/07/27 04:08:12;;;;;;;20.10;15.70;;;;;;;18.52;76.71;96975.91;1758242;79;27385;-88
2021/07/27 04:10:39;;;;;;;19.35;15.38;;;;;;;18.51;76.73;96978.37;1767160;79;25815;-87
2021/07/27 04:13:06;;;;;;;20.35;15.95;;;;;;;18.53;76.79;96984.93;1757083;79;25813;-88
2021/07/27 04:15:38;;;;;;;21.02;15.95;;;;;;;18.57;76.74;96987.41;1782730;79;26455;-88
2021/07/27 04:18:05;;;;;;;23.83;16.32;;;;;;;18.59;76.79;96990.72;1771033;78;31564;-89
2021/07/27 04:20:31;;;;;;;27.13;18.25;;;;;;;18.61;76.86;96988.52;1755252;79;27424;-89
2021/07/27 04:22:58;;;;;;;23.10;18.25;;;;;;;18.63;76.84;96980.86;1787787;79;25758;-91
2021/07/27 04:25:27;;;;;;;21.37;16.45;;;;;;;18.66;76.83;96975.67;1791179;77;25771;-90
2021/07/27 04:27:53;;;;;;;19.17;16.45;;;;;;;18.69;76.83;96977.05;1785409;78;25836;-88
2021/07/27 04:30:20;;;;;;;21.60;17.62;;;;;;;18.73;76.85;96975.39;1803599;77;25289;-89
2021/07/27 04:32:46;;;;;;;20.77;17.32;;;;;;;18.76;76.88;96982.23;1790439;78;27403;-88
2021/07/27 04:35:13;;;;;;;25.65;17.50;;;;;;;18.78;76.91;96975.41;1766666;78;25937;-88
2021/07/27 04:37:40;;;;;;;24.18;16.97;;;;;;;18.84;76.94;96970.73;1765418;78;26053;-87
2021/07/27 04:40:07;;;;;;;22.85;17.65;;;;;;;18.87;76.93;96971.02;1768373;79;25747;-88
2021/07/27 04:42:35;;;;;;;22.50;16.87;;;;;;;18.91;76.92;96966.64;1775027;79;25766;-88
2021/07/27 04:45:01;;;;;;;24.95;18.65;;;;;;;18.95;76.91;96958.17;1812567;78;27382;-88
2021/07/27 04:47:28;;;;;;;23.55;18.60;;;;;;;18.99;76.89;96953.77;1809576;77;25727;-90
2021/07/27 04:49:54;;;;;;;25.57;17.90;;;;;;;19.04;76.90;96964.72;1807245;78;25734;-87
2021/07/27 04:52:21;;;;;;;27.42;19.75;;;;;;;19.05;76.91;96951.31;1805891;77;25722;-89
2021/07/27 04:54:51;;;;;;;26.33;18.77;;;;;;;19.07;76.94;96940.10;1830891;77;25690;-88
2021/07/27 04:57:18;;;;;;;24.05;18.67;;;;;;;19.12;77.06;96957.86;1788417;78;27413;-88
2021/07/27 04:59:44;;;;;;;27.50;19.98;;;;;;;19.17;77.01;96962.52;1787363;79;25808;-87
2021/07/27 05:02:12;;;;;;;26.48;19.10;;;;;;;19.20;76.95;96942.81;1752676;80;25846;-87
2021/07/27 05:04:38;;;;;;;26.40;18.95;;;;;;;19.23;76.98;96936.77;1749280;80;26076;-90
2021/07/27 05:07:05;;;;;;;31.80;18.95;;;;;;;19.29;77.08;96947.98;1776640;79;25766;-87
2021/07/27 05:09:32;;;;;;;25.75;19.05;;;;;;;19.34;77.10;96953.42;1769631;79;27382;-87
2021/07/27 05:11:59;;;;;;;23.02;18.62;;;;;;;19.36;77.04;96942.47;1757801;79;25667;-88
2021/07/27 05:14:26;;;;;;;25.88;18.98;;;;;;;19.41;77.05;96935.63;1761574;79;25726;-89
2021/07/27 05:16:55;;;;;;;27.22;18.35;;;;;;;19.48;77.03;96938.05;1788652;78;25752;-88
2021/07/27 05:19:22;;;;;;;25.12;18.77;;;;;;;19.56;77.01;96946.29;1784913;78;25714;-87
2021/07/27 05:21:50;;;;;;;22.82;18.82;;;;;;;19.63;76.90;96941.32;1785533;78;27435;-88
2021/07/27 05:24:16;;;;;;;28.05;19.60;;;;;;;19.68;76.80;96937.99;1786826;77;25761;-87
2021/07/27 05:26:43;;;;;;;26.93;18.62;;;;;;;19.75;76.79;96936.34;1798685;77;26265;-89
2021/07/27 05:29:10;;;;;;;27.87;18.70;;;;;;;19.82;76.89;96940.12;1799560;78;26256;-89
2021/07/27 05:31:38;;;;;;;27.10;18.40;;;;;;;19.87;76.87;96925.87;1796952;77;26264;-88
2021/07/27 05:34:07;;;;;;;24.57;18.85;;;;;;;19.94;76.84;96919.52;1794254;77;28169;-88
2021/07/27 05:36:35;;;;;;;24.98;17.50;;;;;;;19.99;76.89;96924.98;1796946;77;25784;-92
2021/07/27 05:39:02;;;;;;;24.43;17.75;;;;;;;20.05;76.75;96917.53;1737597;80;25488;-89
2021/07/27 05:41:29;;;;;;;20.50;17.07;;;;;;;20.13;76.56;96921.88;1786497;79;25777;-92
2021/07/27 05:43:56;;;;;;;21.75;16.27;;;;;;;20.19;76.35;96911.69;1763904;79;25696;-90
2021/07/27 05:46:22;;;;;;;23.00;16.50;;;;;;;20.26;76.17;96916.31;1770939;79;27465;-87
2021/07/27 05:48:52;;;;;;;25.00;16.37;;;;;;;20.30;76.07;96918.73;1750350;80;25759;-90
2021/07/27 05:51:17;;;;;;;22.62;15.63;;;;;;;20.38;75.98;96915.98;1754237;80;25264;-87
2021/07/27 05:53:44;;;;;;;17.42;14.38;;;;;;;20.45;75.75;96914.55;1712546;81;25730;-88
2021/07/27 05:56:11;;;;;;;23.57;15.40;;;;;;;20.53;75.47;96919.17;1713188;80;26189;-88
2021/07/27 05:58:37;;;;;;;18.20;15.20;;;;;;;20.60;75.46;96925.12;1712773;82;27408;-92
2021/07/27 06:01:09;;;;;;;20.82;15.80;;;;;;;20.68;75.38;96925.88;1725633;81;25710;-89
2021/07/27 06:03:36;;;;;;;24.45;16.02;;;;;;;20.76;75.23;96922.53;1709102;82;25253;-89
2021/07/27 06:06:02;;;;;;;22.17;15.90;;;;;;;20.84;75.08;96924.64;1800320;78;25765;-88
2021/07/27 06:08:29;;;;;;;22.25;15.28;;;;;;;20.92;75.00;96924.56;1793837;77;25881;-87
2021/07/27 06:10:55;;;;;;;23.20;15.25;;;;;;;21.00;74.85;96928.06;1783224;77;27353;-89
2021/07/27 06:13:22;;;;;;;26.48;16.12;;;;;;;21.09;74.73;96922.20;1767294;80;25686;-87
2021/07/27 06:15:48;;;;;;;20.35;14.30;;;;;;;21.17;74.65;96925.67;1757906;80;26164;-89
2021/07/27 06:18:15;;;;;;;21.10;14.03;;;;;;;21.27;74.73;96916.55;1763496;79;25883;-87
2021/07/27 06:20:42;;;;;;;20.65;14.87;;;;;;;21.36;74.53;96921.67;1775871;79;25741;-90
2021/07/27 06:23:08;;;;;;;21.15;14.10;;;;;;;21.44;74.32;96925.97;1763809;80;27395;-91
2021/07/27 06:25:37;;;;;;;19.02;13.60;;;;;;;21.53;74.19;96926.95;1738547;79;25694;-88
2021/07/27 06:28:05;;;;;;;22.95;14.35;;;;;;;21.63;74.08;96928.75;1780643;79;25713;-92
2021/07/27 06:30:32;;;;;;;21.48;13.72;;;;;;;21.71;73.76;96928.12;1766778;79;25853;-88
2021/07/27 06:32:58;;;;;;;15.70;13.30;;;;;;;21.80;73.45;96929.64;1760989;80;25760;-87
2021/07/27 06:35:25;;;;;;;20.37;12.80;;;;;;;21.89;73.29;96938.30;1784405;79;28260;-89
2021/07/27 06:37:52;;;;;;;17.98;12.37;;;;;;;21.97;73.04;96936.03;1712661;82;25319;-88
2021/07/27 06:40:18;;;;;;;18.35;11.83;;;;;;;22.05;72.92;96934.83;1712805;81;26344;-91
2021/07/27 06:42:45;;;;;;;15.68;12.43;;;;;;;22.15;72.92;96932.48;1725254;81;26377;-89
2021/07/27 06:45:12;;;;;;;18.55;12.70;;;;;;;22.24;72.82;96932.08;1763834;81;25684;-89
2021/07/27 06:47:39;;;;;;;15.70;12.00;;;;;;;22.31;72.53;96928.41;1752383;79;28513;-93
2021/07/27 06:50:07;;;;;;;17.70;11.90;;;;;;;22.47;71.64;96925.67;1762915;79;25730;-89
2021/07/27 06:52:33;;;;;;;13.25;10.90;;;;;;;22.45;71.43;96901.80;1766623;79;25872;-90
2021/07/27 06:55:00;;;;;;;17.00;11.78;;;;;;;22.70;71.22;96930.01;1739885;80;26462;-89
2021/07/27 06:57:27;;;;;;;16.10;11.55;;;;;;;22.81;71.35;96916.37;1756844;80;25761;-89
2021/07/27 06:59:54;;;;;;;18.85;10.82;;;;;;;22.81;71.35;96916.37;1784399;78;27391;-89
2021/07/27 07:02:20;;;;;;;21.20;11.75;;;;;;;22.91;71.19;96917.56;1796564;77;25888;-90
2021/07/27 07:04:47;;;;;;;16.73;12.37;;;;;;;23.01;70.91;96921.50;1791925;77;26355;-88
2021/07/27 07:07:14;;;;;;;21.60;12.23;;;;;;;23.11;70.94;96921.31;1773973;78;25878;-87
2021/07/27 07:09:40;;;;;;;20.05;11.53;;;;;;;23.23;71.27;96925.77;1792620;77;25761;-88
2021/07/27 07:12:13;;;;;;;20.62;11.43;;;;;;;23.35;71.11;96929.41;1813209;77;28119;-91
2021/07/27 07:14:39;;;;;;;17.73;11.70;;;;;;;23.45;70.90;96933.33;1803596;77;25853;-86
2021/07/27 07:17:07;;;;;;;15.28;11.12;;;;;;;23.55;70.68;96937.84;1802623;78;25289;-92
2021/07/27 07:19:33;;;;;;;19.00;9.23;;;;;;;23.64;70.21;96939.61;1796360;78;25783;-89
2021/07/27 07:22:00;;;;;;;16.37;8.93;;;;;;;23.72;68.97;96952.41;1805232;78;25759;-89
2021/07/27 07:24:27;;;;;;;20.35;10.35;;;;;;;23.79;68.63;96946.72;1782043;79;27338;-89
2021/07/27 07:26:53;;;;;;;19.87;8.40;;;;;;;23.89;68.56;96948.48;1776717;79;25911;-89
2021/07/27 07:29:20;;;;;;;14.40;8.38;;;;;;;23.98;67.86;96950.19;1760914;79;25728;-93
2021/07/27 07:31:46;;;;;;;12.70;8.80;;;;;;;24.06;66.95;96961.05;1783588;79;26418;-88
2021/07/27 07:34:13;;;;;;;16.77;8.88;;;;;;;24.14;66.81;96959.52;1772606;79;25268;-93
2021/07/27 07:36:40;;;;;;;19.60;9.63;;;;;;;24.24;66.47;96957.94;1764084;79;28260;-86
2021/07/27 07:39:06;;;;;;;16.90;9.35;;;;;;;24.39;66.43;96954.25;1745822;79;25718;-90
2021/07/27 07:41:33;;;;;;;14.95;8.70;;;;;;;24.51;66.15;96957.06;1769092;79;25690;-87
2021/07/27 07:43:59;;;;;;;23.27;9.35;;;;;;;24.64;65.98;96954.78;1770615;79;25994;-87
2021/07/27 07:46:26;;;;;;;19.70;8.88;;;;;;;24.79;65.57;96955.80;1774722;79;26238;-87
2021/07/27 07:48:53;;;;;;;16.65;9.88;;;;;;;24.96;65.20;96955.16;1746709;79;27983;-87
2021/07/27 07:51:19;;;;;;;18.65;9.05;;;;;;;25.13;64.93;96960.20;1765924;79;25607;-87
2021/07/27 07:53:46;;;;;;;21.73;9.23;;;;;;;25.30;64.58;96958.69;1751649;79;25926;-86
2021/07/27 07:56:13;;;;;;;21.40;8.55;;;;;;;25.38;64.51;96962.86;1767186;80;25770;-87
2021/07/27 07:58:39;;;;;;;14.95;8.90;;;;;;;25.49;64.29;96973.89;1729665;80;25652;-87
2021/07/27 08:01:08;;;;;;;22.95;9.10;;;;;;;25.72;64.24;96975.27;1747727;79;28101;-87
2021/07/27 08:03:35;;;;;;;16.87;8.98;;;;;;;25.98;63.96;96978.91;1779147;79;25697;-89
2021/07/27 08:06:02;;;;;;;14.55;8.68;;;;;;;26.18;63.37;96977.52;1767908;78;25778;-88
2021/07/27 08:08:29;;;;;;;14.30;8.38;;;;;;;26.33;63.06;96979.83;1762756;79;25840;-89
2021/07/27 08:10:56;;;;;;;13.05;8.23;;;;;;;26.43;62.76;96987.03;1775749;79;25311;-85
2021/07/27 08:13:22;;;;;;;12.33;8.63;;;;;;;26.42;62.66;96993.70;1792653;79;27413;-86
2021/07/27 08:15:49;;;;;;;13.05;8.10;;;;;;;26.39;62.80;96997.93;1772025;79;26127;-86
2021/07/27 08:18:16;;;;;;;9.85;8.55;;;;;;;26.48;62.78;96995.98;1768598;80;25740;-88
2021/07/27 08:20:42;;;;;;;13.10;7.67;;;;;;;26.54;62.66;97004.95;1770331;79;25713;-87
2021/07/27 08:23:09;;;;;;;15.20;8.08;;;;;;;26.72;62.63;97006.58;1758587;79;25386;-87
2021/07/27 08:25:36;;;;;;;13.05;8.98;;;;;;;26.89;61.82;97017.67;1767598;79;27458;-88
2021/07/27 08:28:02;;;;;;;17.27;8.43;;;;;;;26.71;62.02;97010.48;1776325;79;25670;-87
2021/07/27 08:30:29;;;;;;;14.18;8.48;;;;;;;26.87;62.21;97021.34;1794661;79;25667;-85
2021/07/27 08:32:55;;;;;;;13.10;7.70;;;;;;;27.11;62.14;97015.90;1794513;79;26500;-86
2021/07/27 08:35:23;;;;;;;19.17;7.83;;;;;;;27.28;61.19;97013.13;1796861;79;26361;-85
2021/07/27 08:37:50;;;;;;;9.48;7.45;;;;;;;27.19;60.81;97010.91;1811966;77;28277;-85
2021/07/27 08:40:21;;;;;;;15.20;7.90;;;;;;;27.10;60.96;97021.19;1810962;78;25759;-84
2021/07/27 08:42:47;;;;;;;11.38;8.45;;;;;;;27.10;60.47;97023.96;1815366;78;25663;-87
2021/07/27 08:45:15;;;;;;;9.70;7.78;;;;;;;27.01;60.29;97025.93;1787657;78;25763;-84
2021/07/27 08:47:48;;;;;;;12.50;8.18;;;;;;;26.96;60.13;97032.44;1798336;78;26343;-85
2021/07/27 08:50:18;;;;;;;12.80;7.92;;;;;;;27.14;60.07;97032.69;1778184;79;27599;-87
2021/07/27 08:52:45;;;;;;;11.43;8.25;;;;;;;27.53;59.88;97026.69;1783420;78;25693;-85
2021/07/27 08:55:12;;;;;;;19.57;8.23;;;;;;;27.96;59.71;97029.33;1811364;78;25723;-86
2021/07/27 08:57:56;;;;;;;14.90;8.30;;;;;;;28.40;59.08;97034.11;1794980;78;25748;-87
2021/07/27 09:00:29;;;;;;;11.55;8.08;;;;;;;28.81;58.42;97027.27;1776948;79;25818;-88
2021/07/27 09:03:18;;;;;;;12.58;7.85;;;;;;;29.28;57.93;97025.63;1782819;77;27447;-84
2021/07/27 09:05:46;;;;;;;12.70;7.80;;;;;;;29.55;57.31;97031.21;1750329;80;25690;-87
2021/07/27 09:08:16;;;;;;;15.20;7.72;;;;;;;29.80;56.67;97029.30;1733169;80;26404;-84
2021/07/27 09:10:44;;;;;;;14.38;7.55;;;;;;;29.96;56.25;97024.12;1778924;78;25792;-84
2021/07/27 09:13:15;;;;;;;15.32;8.15;;;;;;;30.11;55.92;97034.34;1769320;79;25227;-86
2021/07/27 09:15:44;;;;;;;14.30;7.83;;;;;;;30.37;55.74;97041.20;1783924;77;27489;-84
2021/07/27 09:18:21;;;;;;;21.70;8.63;;;;;;;30.47;55.40;97044.67;1792704;77;25754;-84
2021/07/27 09:20:51;;;;;;;13.75;8.90;;;;;;;30.49;55.15;97042.35;1810543;77;25722;-84
2021/07/27 09:23:26;;;;;;;14.20;8.38;;;;;;;30.06;54.50;97047.93;1810165;78;25739;-83
2021/07/27 09:25:56;;;;;;;10.55;7.60;;;;;;;29.99;55.08;97056.83;1787869;78;25480;-82
2021/07/27 09:28:25;;;;;;;17.30;9.53;;;;;;;29.99;54.49;97061.00;1813530;78;27408;-85
2021/07/27 09:31:01;;;;;;;11.35;9.08;;;;;;;29.80;54.24;97055.73;1816734;78;25747;-85
2021/07/27 09:33:34;;;;;;;13.65;8.78;;;;;;;29.64;54.66;97057.77;1811245;78;25722;-85
2021/07/27 09:36:03;;;;;;;14.28;9.20;;;;;;;29.34;54.46;97061.81;1803989;78;25776;-83
2021/07/27 09:38:33;;;;;;;15.35;8.93;;;;;;;29.21;55.27;97065.11;1740947;80;25714;-85
2021/07/27 09:41:06;;;;;;;14.05;8.83;;;;;;;29.27;54.90;97072.65;1775179;79;27005;-85
2021/07/27 09:43:33;;;;;;;12.65;9.20;;;;;;;29.28;54.79;97081.23;1760353;80;25753;-84
2021/07/27 09:46:01;;;;;;;11.93;8.83;;;;;;;28.95;54.78;97077.00;1739079;80;25757;-85
2021/07/27 09:48:30;;;;;;;15.38;8.95;;;;;;;28.79;54.90;97069.84;1716724;82;25927;-83
2021/07/27 09:51:01;;;;;;;14.35;8.83;;;;;;;28.61;54.86;97069.12;1727238;81;25928;-85
2021/07/27 09:53:29;;;;;;;19.17;9.63;;;;;;;28.47;54.95;97057.44;1717082;81;27408;-85
2021/07/27 09:55:57;;;;;;;14.83;8.90;;;;;;;28.54;55.28;97054.94;1732646;81;25878;-87
2021/07/27 09:58:27;;;;;;;17.45;9.65;;;;;;;28.64;55.04;97067.61;1765922;80;25737;-86
2021/07/27 10:01:03;;;;;;;13.30;9.68;;;;;;;28.53;54.96;97064.98;1751896;79;25891;-80
2021/07/27 10:03:37;;;;;;;16.32;9.25;;;;;;;28.38;55.13;97071.12;1776491;79;25835;-88
2021/07/27 10:06:10;;;;;;;14.83;9.90;;;;;;;28.29;55.63;97077.52;1739256;79;27122;-87
2021/07/27 10:08:37;;;;;;;12.93;9.38;;;;;;;28.44;55.80;97076.72;1777564;79;25247;-86
2021/07/27 10:11:12;;;;;;;15.28;10.00;;;;;;;28.48;55.56;97084.05;1763687;79;25829;-87
2021/07/27 10:13:48;;;;;;;14.70;9.45;;;;;;;28.37;55.26;97081.99;1815269;77;25703;-89
2021/07/27 10:16:25;;;;;;;20.37;11.35;;;;;;;28.00;55.14;97082.20;1814269;78;25845;-91
2021/07/27 10:18:53;;;;;;;21.05;12.65;;;;;;;27.41;55.58;97091.67;1802018;78;27363;-89
2021/07/27 10:21:25;;;;;;;23.52;15.90;;;;;;;26.97;56.70;97092.23;1793291;77;25298;-88
2021/07/27 10:23:59;;;;;;;16.52;12.18;;;;;;;26.71;57.20;97088.01;1791599;77;25743;-87
2021/07/27 10:26:32;;;;;;;17.60;13.18;;;;;;;26.51;57.78;97080.32;1780947;78;26601;-87
2021/07/27 10:29:01;;;;;;;20.68;14.98;;;;;;;26.41;58.49;97073.70;1718219;81;25825;-91
2021/07/27 10:31:42;;;;;;;21.25;14.68;;;;;;;26.33;59.33;97074.47;1711815;80;27436;-89
2021/07/27 10:34:11;;;;;;;20.52;14.15;;;;;;;26.35;59.98;97071.64;1761931;78;25736;-89
2021/07/27 10:36:44;;;;;;;18.62;12.18;;;;;;;26.49;60.47;97072.91;1775998;79;25820;-90
2021/07/27 10:39:18;;;;;;;15.83;10.80;;;;;;;26.74;60.41;97081.83;1754512;79;25769;-89
2021/07/27 10:41:50;;;;;;;16.02;9.85;;;;;;;27.08;60.02;97077.48;1784521;79;25723;-90
2021/07/27 10:44:24;;;;;;;17.77;9.70;;;;;;;27.40;59.58;97072.84;1777369;79;28309;-87
2021/07/27 10:46:50;;;;;;;21.13;11.10;;;;;;;27.50;59.02;97075.27;1762606;79;25281;-89
2021/07/27 10:49:25;;;;;;;13.78;10.30;;;;;;;27.63;58.93;97072.67;1768456;78;25725;-91
2021/07/27 10:51:54;;;;;;;22.55;9.83;;;;;;;27.87;58.54;97077.91;1799573;77;25869;-90
2021/07/27 10:54:33;;;;;;;14.47;9.83;;;;;;;28.08;58.32;97073.83;1799729;78;25790;-89
2021/07/27 10:57:03;;;;;;;16.17;9.78;;;;;;;28.22;58.14;97067.52;1794362;77;27421;-88
2021/07/27 10:59:31;;;;;;;12.80;10.13;;;;;;;28.45;57.95;97065.86;1805915;77;25787;-89
2021/07/27 11:02:00;;;;;;;23.57;10.38;;;;;;;28.70;57.68;97068.23;1811735;77;25892;-86
2021/07/27 11:04:28;;;;;;;14.35;10.03;;;;;;;28.91;57.05;97062.97;1823728;77;25781;-88
2021/07/27 11:07:12;;;;;;;14.23;9.13;;;;;;;29.11;56.89;97059.13;1815231;77;25694;-86
2021/07/27 11:09:57;;;;;;;15.25;9.53;;;;;;;29.30;56.22;97061.67;1790795;78;27343;-87
2021/07/27 11:12:36;;;;;;;17.25;9.65;;;;;;;29.40;55.87;97064.63;1798238;77;26351;-87
2021/07/27 11:15:14;;;;;;;18.02;9.08;;;;;;;29.47;55.72;97055.15;1762831;79;25776;-89
2021/07/27 11:17:47;;;;;;;17.62;9.28;;;;;;;29.66;55.40;97054.07;1741044;80;26501;-86
2021/07/27 11:20:22;;;;;;;15.45;8.90;;;;;;;29.79;55.24;97049.93;1771943;79;25829;-92
2021/07/27 11:22:55;;;;;;;17.23;9.20;;;;;;;29.96;54.88;97051.95;1771280;79;27940;-88
2021/07/27 11:25:25;;;;;;;15.95;9.48;;;;;;;30.04;54.05;97033.54;1766531;79;25905;-86
2021/07/27 11:27:53;;;;;;;14.73;9.35;;;;;;;30.08;53.85;97031.67;1792438;78;25704;-87
2021/07/27 11:30:22;;;;;;;12.98;9.43;;;;;;;30.14;53.94;97031.69;1786387;77;25794;-92
2021/07/27 11:32:52;;;;;;;15.63;9.08;;;;;;;30.20;53.89;97034.45;1796399;77;25742;-88
2021/07/27 11:35:26;;;;;;;16.93;9.28;;;;;;;30.37;53.42;97044.56;1791518;77;27422;-89
2021/07/27 11:38:05;;;;;;;13.95;9.35;;;;;;;30.44;52.92;97042.00;1800321;77;26013;-89
2021/07/27 11:40:32;;;;;;;12.98;9.25;;;;;;;30.44;52.61;97042.81;1824832;77;25754;-87
2021/07/27 11:43:09;;;;;;;18.40;9.88;;;;;;;30.30;52.52;97043.77;1774632;78;26496;-91
2021/07/27 11:45:43;;;;;;;16.65;9.63;;;;;;;30.18;52.40;97038.77;1793598;77;25666;-87
2021/07/27 11:48:11;;;;;;;14.90;10.00;;;;;;;30.13;52.39;97041.20;1761387;77;27380;-87